createdAt,value
2017-12-01T00:01:28.090Z,76.40
2017-12-01T00:03:54.306Z,76.30
2017-12-01T00:06:20.556Z,76.30
2017-12-01T00:08:48.595Z,76.00
2017-12-01T00:11:16.714Z,76.00
2017-12-01T00:13:44.381Z,76.30
2017-12-01T00:16:10.605Z,76.30
2017-12-01T00:18:38.090Z,76.20
2017-12-01T00:21:05.782Z,76.10
2017-12-01T00:23:32.310Z,76.10
2017-12-01T00:26:00.159Z,76.10
2017-12-01T00:28:26.368Z,76.00
2017-12-01T00:30:53.224Z,76.30
2017-12-01T00:33:20.347Z,76.30
2017-12-01T00:35:47.842Z,76.40
2017-12-01T00:38:15.449Z,76.00
2017-12-01T00:40:42.422Z,76.20
2017-12-01T00:43:08.662Z,76.10
2017-12-01T00:45:35.022Z,76.10
2017-12-01T00:48:01.869Z,76.10
2017-12-01T00:50:28.450Z,76.80
2017-12-01T00:52:55.201Z,76.00
2017-12-01T00:55:21.418Z,75.90
2017-12-01T00:57:47.651Z,76.00
2017-12-01T01:00:14.428Z,75.80
2017-12-01T01:02:40.656Z,76.10
2017-12-01T01:05:07.563Z,76.10
2017-12-01T01:20:33.956Z,76.10
2017-12-01T01:23:01.318Z,75.90
2017-12-01T01:25:29.291Z,76.20
2017-12-01T01:27:56.083Z,76.20
2017-12-01T01:30:22.338Z,76.40
2017-12-01T01:32:48.574Z,76.80
2017-12-01T01:45:05.578Z,76.90
2017-12-01T01:47:32.538Z,74.90
2017-12-01T01:49:58.781Z,75.80
2017-12-01T01:52:25.826Z,76.70
2017-12-01T01:54:53.593Z,76.90
2017-12-01T01:57:20.470Z,77.00
2017-12-01T01:59:48.088Z,77.00
2017-12-01T02:02:14.316Z,77.00
2017-12-01T02:04:40.887Z,77.10
2017-12-01T02:07:07.867Z,76.90
2017-12-01T02:09:35.063Z,76.90
2017-12-01T02:12:02.195Z,76.90
2017-12-01T02:14:28.864Z,76.90
2017-12-01T02:16:55.139Z,77.00
2017-12-01T02:19:21.366Z,77.00
2017-12-01T02:21:48.054Z,76.90
2017-12-01T02:24:15.052Z,76.40
2017-12-01T02:26:41.295Z,76.30
2017-12-01T02:29:08.530Z,76.10
2017-12-01T02:31:35.450Z,76.00
2017-12-01T02:34:02.184Z,76.80
2017-12-01T02:36:29.159Z,76.10
2017-12-01T02:38:55.422Z,76.10
2017-12-01T02:41:21.956Z,76.30
2017-12-01T02:43:48.983Z,75.70
2017-12-01T02:46:15.841Z,75.70
2017-12-01T02:48:42.958Z,75.50
2017-12-01T02:51:09.740Z,75.80
2017-12-01T02:53:36.526Z,76.00
2017-12-01T02:56:03.679Z,76.40
2017-12-01T02:58:29.987Z,76.40
2017-12-01T03:00:56.855Z,76.50
2017-12-01T03:03:24.818Z,76.20
2017-12-01T03:05:52.517Z,76.40
2017-12-01T03:08:18.729Z,76.40
2017-12-01T03:10:45.105Z,76.50
2017-12-01T03:13:11.794Z,76.40
2017-12-01T03:15:38.204Z,76.20
2017-12-01T03:18:05.174Z,76.40
2017-12-01T03:20:31.414Z,76.30
2017-12-01T03:22:57.658Z,76.40
2017-12-01T03:25:24.282Z,76.40
2017-12-01T03:27:50.936Z,76.30
2017-12-01T03:30:17.509Z,76.50
2017-12-01T03:32:44.699Z,76.40
2017-12-01T03:35:12.012Z,76.50
2017-12-01T03:37:40.599Z,76.50
2017-12-01T03:40:08.249Z,76.50
2017-12-01T03:42:35.833Z,76.30
2017-12-01T03:45:03.023Z,76.30
2017-12-01T03:47:30.697Z,75.70
2017-12-01T03:49:56.943Z,75.70
2017-12-01T03:52:24.312Z,76.00
2017-12-01T03:54:51.276Z,76.30
2017-12-01T03:57:17.496Z,76.30
2017-12-01T03:59:45.079Z,76.00
2017-12-01T04:02:11.334Z,76.00
2017-12-01T04:04:37.553Z,75.80
2017-12-01T04:07:04.257Z,75.90
2017-12-01T04:09:32.183Z,75.90
2017-12-01T04:11:59.245Z,75.90
2017-12-01T04:14:26.226Z,75.70
2017-12-01T04:29:52.639Z,75.50
2017-12-01T04:32:19.144Z,75.40
2017-12-01T04:34:46.228Z,76.20
2017-12-01T04:37:12.482Z,76.20
2017-12-01T04:39:39.103Z,76.40
2017-12-01T04:42:06.151Z,76.90
2017-12-01T04:44:32.959Z,76.80
2017-12-01T04:47:00.072Z,76.70
2017-12-01T04:49:26.539Z,76.70
2017-12-01T04:51:53.519Z,76.60
2017-12-01T04:54:20.727Z,76.60
2017-12-01T04:56:48.245Z,76.30
2017-12-01T04:59:14.491Z,76.30
2017-12-01T05:01:41.726Z,76.20
2017-12-01T05:04:08.638Z,76.20
2017-12-01T05:06:35.536Z,76.50
2017-12-01T05:09:01.871Z,76.80
2017-12-01T05:11:28.132Z,77.40
2017-12-01T05:13:54.378Z,76.40
2017-12-01T05:16:20.659Z,76.50
2017-12-01T05:18:47.452Z,76.70
2017-12-01T05:21:14.212Z,76.50
2017-12-01T05:23:41.037Z,76.50
2017-12-01T05:26:08.091Z,76.40
2017-12-01T05:28:34.366Z,76.40
2017-12-01T05:31:01.751Z,76.10
2017-12-01T05:33:28.810Z,76.50
2017-12-01T05:35:55.539Z,76.30
2017-12-01T05:38:22.330Z,76.10
2017-12-01T05:40:49.202Z,75.90
2017-12-01T05:43:16.890Z,75.90
2017-12-01T05:45:43.108Z,75.80
2017-12-01T05:48:10.023Z,76.00
2017-12-01T05:50:37.542Z,75.90
2017-12-01T05:53:04.040Z,75.90
2017-12-01T05:55:31.139Z,76.00
2017-12-01T05:57:57.390Z,76.20
2017-12-01T06:00:24.415Z,76.40
2017-12-01T06:02:50.809Z,76.40
2017-12-01T06:05:17.592Z,76.40
2017-12-01T06:07:44.030Z,76.10
2017-12-01T06:10:10.909Z,75.80
2017-12-01T06:12:37.391Z,75.80
2017-12-01T06:15:04.811Z,76.10
2017-12-01T06:17:31.400Z,76.10
2017-12-01T06:19:58.707Z,76.00
2017-12-01T06:22:25.435Z,76.00
2017-12-01T06:24:51.722Z,75.90
2017-12-01T06:27:18.072Z,75.80
2017-12-01T06:29:45.071Z,75.40
2017-12-01T06:32:11.327Z,75.40
2017-12-01T06:34:37.682Z,75.40
2017-12-01T06:37:04.041Z,75.40
2017-12-01T06:39:30.448Z,75.30
2017-12-01T06:41:58.202Z,75.20
2017-12-01T06:44:25.438Z,75.20
2017-12-01T06:46:52.670Z,75.30
2017-12-01T06:49:19.478Z,75.90
2017-12-01T06:51:46.260Z,75.30
2017-12-01T06:54:13.481Z,75.40
2017-12-01T06:56:39.722Z,75.30
2017-12-01T06:59:06.783Z,74.70
2017-12-01T07:01:33.874Z,76.70
2017-12-01T07:04:01.235Z,76.70
2017-12-01T07:06:28.769Z,78.60
2017-12-01T07:08:56.082Z,77.30
2017-12-01T07:11:23.393Z,77.30
2017-12-01T07:13:49.599Z,76.70
2017-12-01T07:16:16.725Z,75.70
2017-12-01T07:18:43.720Z,75.40
2017-12-01T07:21:10.028Z,75.40
2017-12-01T07:23:37.512Z,75.20
2017-12-01T07:26:16.110Z,75.10
2017-12-01T07:28:43.145Z,75.30
2017-12-01T07:31:10.464Z,75.30
2017-12-01T07:33:37.669Z,75.60
2017-12-01T07:36:05.019Z,75.60
2017-12-01T07:38:34.003Z,76.30
2017-12-01T07:41:01.324Z,76.30
2017-12-01T07:43:28.435Z,76.30
2017-12-01T07:45:54.688Z,76.20
2017-12-01T07:48:21.111Z,76.00
2017-12-01T07:50:47.514Z,75.70
2017-12-01T07:53:14.605Z,75.60
2017-12-01T07:55:41.056Z,75.50
2017-12-01T07:58:08.919Z,75.80
2017-12-01T08:00:36.223Z,76.00
2017-12-01T08:03:03.082Z,75.90
2017-12-01T08:05:29.313Z,76.00
2017-12-01T08:07:55.737Z,75.70
2017-12-01T08:10:23.351Z,75.50
2017-12-01T08:12:50.574Z,75.70
2017-12-01T08:15:17.798Z,75.70
2017-12-01T08:17:44.035Z,76.00
2017-12-01T08:20:10.558Z,76.30
2017-12-01T08:22:49.027Z,76.30
2017-12-01T08:25:22.074Z,76.50
2017-12-01T08:27:49.105Z,76.30
2017-12-01T08:30:16.372Z,76.60
2017-12-01T08:32:43.106Z,76.60
2017-12-01T08:35:09.318Z,76.40
2017-12-01T08:37:36.114Z,76.10
2017-12-01T08:40:02.649Z,76.60
2017-12-01T08:42:30.648Z,76.90
2017-12-01T08:44:57.414Z,76.80
2017-12-01T08:47:23.981Z,77.20
2017-12-01T08:49:51.525Z,76.50
2017-12-01T08:52:19.313Z,76.40
2017-12-01T08:54:45.546Z,75.70
2017-12-01T08:57:12.775Z,75.80
2017-12-01T08:59:40.016Z,74.80
2017-12-01T09:02:06.747Z,75.00
2017-12-01T09:04:34.401Z,75.20
2017-12-01T09:07:01.437Z,75.00
2017-12-01T09:09:29.460Z,75.40
2017-12-01T09:11:55.729Z,75.20
2017-12-01T09:14:22.000Z,75.40
2017-12-01T09:16:50.117Z,74.20
2017-12-01T09:19:17.841Z,74.00
2017-12-01T09:21:44.282Z,74.00
2017-12-01T09:24:11.569Z,74.10
2017-12-01T09:26:38.586Z,74.60
2017-12-01T09:29:04.914Z,74.50
2017-12-01T09:31:31.453Z,74.70
2017-12-01T09:33:59.129Z,74.50
2017-12-01T09:36:27.033Z,74.70
2017-12-01T09:38:54.065Z,74.60
2017-12-01T09:41:21.027Z,75.00
2017-12-01T09:43:47.232Z,74.80
2017-12-01T09:46:14.813Z,75.00
2017-12-01T09:48:41.019Z,75.70
2017-12-01T09:51:07.264Z,75.10
2017-12-01T09:53:33.491Z,74.90
2017-12-01T09:55:59.725Z,75.20
2017-12-01T09:58:27.472Z,74.70
2017-12-01T10:00:53.691Z,74.70
2017-12-01T10:03:19.931Z,75.10
2017-12-01T10:05:46.499Z,74.90
2017-12-01T10:08:14.166Z,74.70
2017-12-01T10:10:41.359Z,74.70
2017-12-01T10:13:09.138Z,73.90
2017-12-01T10:15:36.181Z,73.90
2017-12-01T10:18:03.839Z,74.10
2017-12-01T10:20:30.625Z,74.10
2017-12-01T10:22:57.367Z,74.30
2017-12-01T10:25:25.018Z,74.70
2017-12-01T10:27:52.226Z,75.00
2017-12-01T10:30:19.282Z,75.20
2017-12-01T10:32:46.986Z,75.20
2017-12-01T10:35:14.237Z,74.90
2017-12-01T10:37:41.995Z,75.00
2017-12-01T10:40:08.811Z,74.20
2017-12-01T10:42:36.084Z,74.20
2017-12-01T10:45:02.844Z,74.50
2017-12-01T10:47:29.636Z,73.50
2017-12-01T10:49:56.680Z,74.90
2017-12-01T10:52:22.911Z,74.10
2017-12-01T10:54:49.762Z,75.20
2017-12-01T10:57:16.919Z,73.20
2017-12-01T10:59:43.800Z,72.90
2017-12-01T11:02:10.375Z,72.30
2017-12-01T11:04:37.521Z,71.70
2017-12-01T11:07:04.567Z,72.50
2017-12-01T11:09:31.881Z,72.90
2017-12-01T11:11:59.750Z,73.00
2017-12-01T11:14:27.396Z,72.20
2017-12-01T11:16:54.890Z,72.10
2017-12-01T11:19:23.138Z,72.30
2017-12-01T11:21:49.740Z,72.30
2017-12-01T11:24:17.022Z,72.70
2017-12-01T11:26:46.007Z,72.80
2017-12-01T11:29:12.199Z,72.70
2017-12-01T11:31:38.647Z,73.20
2017-12-01T11:34:05.515Z,73.50
2017-12-01T11:36:31.715Z,73.50
2017-12-01T11:38:57.906Z,73.20
2017-12-01T11:41:24.855Z,69.50
2017-12-01T11:43:53.130Z,69.70
2017-12-01T11:46:20.091Z,69.40
2017-12-01T11:48:47.010Z,69.40
2017-12-01T11:51:13.729Z,69.10
2017-12-01T11:53:40.489Z,68.00
2017-12-01T11:56:08.050Z,69.20
2017-12-01T11:58:35.728Z,68.70
2017-12-01T12:01:02.746Z,67.90
2017-12-01T12:03:29.277Z,67.90
2017-12-01T12:05:57.503Z,68.20
2017-12-01T12:08:25.465Z,69.30
2017-12-01T12:10:53.437Z,69.40
2017-12-01T12:13:19.658Z,69.30
2017-12-01T12:15:46.621Z,68.40
2017-12-01T12:18:13.620Z,67.20
2017-12-01T12:20:40.928Z,67.50
2017-12-01T12:23:07.745Z,67.50
2017-12-01T12:25:34.444Z,66.20
2017-12-01T12:28:00.778Z,65.90
2017-12-01T12:30:27.023Z,67.10
2017-12-01T12:32:54.389Z,67.40
2017-12-01T12:35:22.350Z,65.50
2017-12-01T12:37:49.871Z,65.30
2017-12-01T12:40:17.366Z,65.20
2017-12-01T12:42:45.390Z,65.60
2017-12-01T12:45:12.163Z,65.60
2017-12-01T12:47:39.371Z,64.50
2017-12-01T12:50:05.641Z,66.00
2017-12-01T12:52:32.975Z,67.30
2017-12-01T12:54:59.970Z,68.40
2017-12-01T12:57:26.352Z,68.30
2017-12-01T12:59:53.626Z,68.90
2017-12-01T13:02:20.592Z,69.40
2017-12-01T13:04:47.835Z,69.40
2017-12-01T13:07:14.921Z,70.10
2017-12-01T13:09:41.299Z,70.10
2017-12-01T13:12:08.258Z,70.30
2017-12-01T13:14:35.401Z,69.50
2017-12-01T13:17:02.407Z,69.60
2017-12-01T13:19:29.362Z,69.50
2017-12-01T13:21:56.074Z,69.10
2017-12-01T13:24:24.728Z,69.10
2017-12-01T13:26:51.862Z,69.00
2017-12-01T13:29:19.405Z,69.60
2017-12-01T13:31:45.766Z,69.40
2017-12-01T13:34:13.936Z,69.30
2017-12-01T13:36:48.161Z,69.50
2017-12-01T13:39:14.395Z,69.50
2017-12-01T13:41:40.643Z,69.60
2017-12-01T13:44:06.886Z,69.20
2017-12-01T13:46:33.462Z,69.50
2017-12-01T13:49:01.040Z,69.40
2017-12-01T13:51:27.294Z,69.30
2017-12-01T13:53:54.523Z,69.30
2017-12-01T13:56:21.477Z,69.70
2017-12-01T13:58:49.511Z,69.80
2017-12-01T14:01:17.075Z,69.90
2017-12-01T14:03:44.043Z,70.10
2017-12-01T14:06:10.273Z,70.10
2017-12-01T14:08:36.597Z,70.20
2017-12-01T14:11:03.470Z,70.60
2017-12-01T14:13:29.669Z,70.70
2017-12-01T14:15:56.476Z,70.50
2017-12-01T14:18:24.072Z,70.60
2017-12-01T14:20:51.178Z,70.60
2017-12-01T14:23:18.170Z,70.50
2017-12-01T14:25:44.506Z,70.40
2017-12-01T14:28:12.685Z,70.90
2017-12-01T14:30:39.504Z,70.90
2017-12-01T14:33:05.931Z,70.70
2017-12-01T14:35:36.114Z,70.90
2017-12-01T14:38:04.356Z,70.80
2017-12-01T14:40:30.578Z,70.80
2017-12-01T14:42:58.442Z,70.70
2017-12-01T14:45:25.184Z,70.60
2017-12-01T14:47:51.394Z,70.10
2017-12-01T14:50:18.264Z,70.20
2017-12-01T14:52:45.345Z,70.40
2017-12-01T14:55:12.249Z,71.00
2017-12-01T14:57:38.519Z,71.30
2017-12-01T15:00:04.885Z,72.00
2017-12-01T15:02:31.701Z,73.00
2017-12-01T15:04:57.959Z,73.10
2017-12-01T15:07:25.164Z,73.10
2017-12-01T15:09:51.405Z,73.50
2017-12-01T15:12:18.141Z,73.00
2017-12-01T15:14:44.886Z,73.10
2017-12-01T15:17:11.512Z,73.50
2017-12-01T15:19:38.473Z,73.50
2017-12-01T15:22:05.235Z,73.50
2017-12-01T15:24:32.789Z,73.70
2017-12-01T15:27:00.923Z,72.80
2017-12-01T15:29:27.191Z,72.80
2017-12-01T15:31:54.536Z,72.70
2017-12-01T15:34:21.729Z,72.50
2017-12-01T15:36:48.399Z,72.50
2017-12-01T15:39:15.276Z,72.50
2017-12-01T15:41:42.493Z,72.90
2017-12-01T15:44:09.788Z,73.30
2017-12-01T15:46:36.773Z,72.70
2017-12-01T15:49:03.241Z,72.60
2017-12-01T15:51:30.220Z,72.70
2017-12-01T15:53:56.569Z,72.60
2017-12-01T15:56:23.406Z,72.60
2017-12-01T15:58:50.891Z,72.60
2017-12-01T16:01:17.181Z,73.00
2017-12-01T16:03:43.453Z,73.40
2017-12-01T16:06:09.694Z,73.60
2017-12-01T16:08:36.554Z,73.50
2017-12-01T16:11:03.611Z,73.40
2017-12-01T16:13:29.883Z,73.40
2017-12-01T16:15:56.190Z,73.50
2017-12-01T16:18:23.024Z,73.90
2017-12-01T16:20:50.018Z,73.50
2017-12-01T16:23:16.290Z,73.60
2017-12-01T16:25:43.313Z,74.30
2017-12-01T16:28:10.389Z,75.00
2017-12-01T16:30:37.234Z,74.90
2017-12-01T16:33:08.495Z,75.00
2017-12-01T16:35:30.794Z,75.10
2017-12-01T16:37:58.050Z,74.80
2017-12-01T16:40:25.160Z,74.80
2017-12-01T16:42:51.835Z,74.80
2017-12-01T16:45:18.925Z,75.00
2017-12-01T16:47:45.187Z,74.80
2017-12-01T16:50:12.065Z,74.30
2017-12-01T16:52:39.364Z,74.30
2017-12-01T16:55:07.149Z,74.50
2017-12-01T16:57:34.215Z,74.50
2017-12-01T17:00:01.489Z,74.50
2017-12-01T17:02:29.250Z,74.60
2017-12-01T17:04:55.844Z,74.60
2017-12-01T17:07:22.116Z,75.00
2017-12-01T17:09:48.642Z,75.60
2017-12-01T17:12:15.789Z,75.30
2017-12-01T17:14:42.905Z,75.40
2017-12-01T17:17:09.947Z,75.80
2017-12-01T17:19:36.799Z,75.70
2017-12-01T17:22:03.067Z,75.90
2017-12-01T17:24:29.896Z,75.90
2017-12-01T17:26:57.157Z,76.00
2017-12-01T17:29:24.042Z,76.00
2017-12-01T17:31:51.257Z,75.60
2017-12-01T17:34:18.154Z,75.60
2017-12-01T17:36:45.359Z,75.00
2017-12-01T17:39:11.729Z,74.90
2017-12-01T17:41:38.509Z,75.10
2017-12-01T17:44:05.208Z,75.40
2017-12-01T17:46:33.015Z,75.70
2017-12-01T17:58:44.455Z,75.60
2017-12-01T18:01:11.862Z,75.70
2017-12-01T18:03:39.045Z,75.70
2017-12-01T18:06:06.727Z,75.70
2017-12-01T18:08:35.911Z,75.40
2017-12-01T18:11:02.448Z,75.30
2017-12-01T18:13:29.510Z,75.40
2017-12-01T18:15:56.667Z,75.10
2017-12-01T18:18:23.492Z,75.00
2017-12-01T18:20:50.558Z,75.30
2017-12-01T18:23:16.882Z,75.30
2017-12-01T18:25:43.932Z,74.90
2017-12-01T18:28:10.696Z,74.90
2017-12-01T18:30:37.987Z,74.90
2017-12-01T18:33:05.402Z,74.80
2017-12-01T18:35:31.673Z,74.80
2017-12-01T18:37:58.714Z,74.80
2017-12-01T18:40:26.485Z,74.70
2017-12-01T18:42:54.147Z,74.50
2017-12-01T18:45:20.426Z,74.50
2017-12-01T18:47:47.405Z,75.30
2017-12-01T18:50:14.131Z,74.70
2017-12-01T18:52:40.612Z,75.10
2017-12-01T18:55:07.855Z,75.90
2017-12-01T18:57:35.051Z,76.40
2017-12-01T19:00:01.352Z,76.40
2017-12-01T19:02:28.631Z,76.80
2017-12-01T19:04:55.008Z,76.80
2017-12-01T19:07:22.217Z,76.90
2017-12-01T19:09:49.082Z,76.40
2017-12-01T19:12:16.184Z,76.00
2017-12-01T19:14:43.374Z,75.40
2017-12-01T19:17:10.601Z,75.60
2017-12-01T19:19:38.326Z,75.60
2017-12-01T19:22:05.403Z,75.80
2017-12-01T19:24:31.958Z,75.80
2017-12-01T19:26:58.604Z,75.80
2017-12-01T19:29:26.080Z,76.10
2017-12-01T19:31:53.402Z,75.80
2017-12-01T19:34:20.234Z,75.80
2017-12-01T19:36:46.555Z,75.40
2017-12-01T19:39:13.108Z,75.40
2017-12-01T19:41:40.156Z,75.60
2017-12-01T19:44:06.462Z,75.60
2017-12-01T19:46:33.082Z,75.50
2017-12-01T19:49:00.685Z,75.80
2017-12-01T19:51:27.762Z,75.70
2017-12-01T19:53:54.744Z,75.60
2017-12-01T19:56:22.190Z,75.60
2017-12-01T19:58:49.686Z,75.50
2017-12-01T20:01:17.500Z,75.20
2017-12-01T20:03:44.643Z,74.90
2017-12-01T20:06:10.945Z,75.00
2017-12-01T20:08:37.971Z,74.90
2017-12-01T20:11:04.785Z,74.80
2017-12-01T20:13:32.341Z,75.10
2017-12-01T20:15:59.445Z,75.10
2017-12-01T20:18:26.472Z,75.10
2017-12-01T20:20:54.066Z,75.00
2017-12-01T20:23:20.557Z,75.00
2017-12-01T20:25:47.615Z,75.10
2017-12-01T20:28:14.849Z,75.20
2017-12-01T20:30:41.528Z,75.40
2017-12-01T20:33:08.545Z,75.30
2017-12-01T20:35:35.911Z,75.30
2017-12-01T20:38:03.056Z,75.20
2017-12-01T20:40:30.578Z,74.60
2017-12-01T20:42:59.324Z,74.40
2017-12-01T20:45:26.541Z,74.30
2017-12-01T20:47:53.716Z,74.60
2017-12-01T20:50:21.727Z,74.70
2017-12-01T20:52:48.057Z,74.60
2017-12-01T20:55:15.135Z,74.70
2017-12-01T20:57:41.456Z,74.70
2017-12-01T21:00:07.743Z,74.20
2017-12-01T21:02:34.919Z,74.10
2017-12-01T21:05:01.587Z,73.90
2017-12-01T21:07:28.151Z,73.90
2017-12-01T21:09:54.744Z,74.20
2017-12-01T21:12:21.732Z,73.70
2017-12-01T21:14:48.640Z,73.80
2017-12-01T21:17:15.209Z,73.80
2017-12-01T21:19:42.782Z,73.70
2017-12-01T21:22:10.369Z,74.00
2017-12-01T21:24:37.964Z,74.00
2017-12-01T21:27:04.964Z,74.00
2017-12-01T21:29:31.869Z,74.00
2017-12-01T21:31:59.889Z,74.10
2017-12-01T21:34:26.336Z,74.30
2017-12-01T21:36:53.636Z,74.20
2017-12-01T21:39:19.901Z,74.30
2017-12-01T21:41:47.726Z,74.00
2017-12-01T21:44:14.545Z,74.00
2017-12-01T21:46:41.771Z,74.10
2017-12-01T21:49:09.946Z,73.90
2017-12-01T21:51:37.166Z,73.60
2017-12-01T21:54:04.163Z,73.20
2017-12-01T21:56:31.436Z,73.10
2017-12-01T21:58:59.004Z,73.30
2017-12-01T22:01:25.797Z,73.30
2017-12-01T22:03:52.841Z,73.40
2017-12-01T22:06:21.140Z,73.60
2017-12-01T22:08:48.724Z,73.60
2017-12-01T22:11:15.645Z,73.50
2017-12-01T22:13:41.913Z,73.70
2017-12-01T22:16:10.066Z,73.60
2017-12-01T22:18:37.323Z,73.70
2017-12-01T22:21:05.697Z,73.60
2017-12-01T22:23:32.331Z,73.60
2017-12-01T22:25:59.372Z,73.60
2017-12-01T22:28:25.663Z,73.50
2017-12-01T22:30:53.783Z,73.70
2017-12-01T22:33:20.068Z,73.70
2017-12-01T22:35:47.058Z,74.00
2017-12-01T22:38:13.893Z,74.00
2017-12-01T22:40:40.289Z,74.00
2017-12-01T22:43:07.355Z,74.20
2017-12-01T22:45:33.722Z,74.20
2017-12-01T22:47:59.993Z,74.00
2017-12-01T22:50:27.177Z,73.80
2017-12-01T22:52:54.656Z,73.70
2017-12-01T22:55:20.887Z,73.70
2017-12-01T22:57:47.105Z,73.70
2017-12-01T23:00:13.295Z,73.90
2017-12-01T23:02:40.186Z,73.90
2017-12-01T23:05:06.478Z,74.10
2017-12-01T23:07:32.696Z,74.20
2017-12-01T23:09:59.114Z,74.10
2017-12-01T23:12:26.905Z,73.80
2017-12-01T23:14:53.309Z,73.70
2017-12-01T23:17:20.438Z,73.80
2017-12-01T23:19:47.979Z,73.80
2017-12-01T23:22:14.727Z,73.80
2017-12-01T23:24:41.563Z,74.50
2017-12-01T23:27:08.741Z,75.10
2017-12-01T23:29:36.286Z,75.20
2017-12-01T23:32:03.787Z,75.50
2017-12-01T23:34:32.155Z,75.10
2017-12-01T23:36:59.673Z,75.10
2017-12-01T23:39:25.856Z,75.20
2017-12-01T23:41:53.505Z,75.20
2017-12-01T23:44:20.523Z,75.50
2017-12-01T23:46:48.117Z,75.60
2017-12-01T23:49:15.707Z,75.60
2017-12-01T23:51:41.944Z,75.90
2017-12-01T23:54:09.142Z,76.00
2017-12-01T23:56:37.424Z,75.70
2017-12-01T23:59:04.200Z,75.80
